Time;durP1;ratioP1;P1;durP2;ratioP2;P2;SDS_P1;SDS_P2;PMS_P1;PMS_P2;Temp;Humidity;BMP_temperature;BMP_pressure;BME280_temperature;BME280_humidity;BME280_pressure;Samples;Min_cycle;Max_cycle;Signal;HPM_P1;HPM_P2
2023/09/09 00:01:29;;;;;;;;;;;20.90;56.90;;;;;;5032362;28;19913;-68
2023/09/09 00:03:55;;;;;;;;;;;20.80;57.10;;;;;;5032468;28;19921;-67
2023/09/09 00:06:21;;;;;;;;;;;20.80;57.20;;;;;;5032223;28;19909;-67
2023/09/09 00:08:46;;;;;;;;;;;20.80;57.50;;;;;;5030859;28;20467;-66
2023/09/09 00:11:11;;;;;;;;;;;20.80;57.60;;;;;;5031780;28;19909;-67
2023/09/09 00:13:37;;;;;;;;;;;20.80;57.60;;;;;;5032288;28;20020;-68
2023/09/09 00:16:02;;;;;;;;;;;20.80;57.50;;;;;;5032011;28;20376;-67
2023/09/09 00:18:28;;;;;;;;;;;20.80;57.50;;;;;;5032120;28;20015;-67
2023/09/09 00:20:53;;;;;;;;;;;20.80;57.40;;;;;;5032063;28;19913;-68
2023/09/09 00:23:19;;;;;;;;;;;20.80;57.60;;;;;;5032367;28;19963;-67
2023/09/09 00:25:45;;;;;;;;;;;20.80;57.50;;;;;;5032063;28;19964;-68
2023/09/09 00:28:11;;;;;;;;;;;20.70;57.50;;;;;;5031820;28;20369;-67
2023/09/09 00:30:36;;;;;;;;;;;20.70;57.60;;;;;;5032275;28;19909;-66
2023/09/09 00:33:02;;;;;;;;;;;20.70;57.90;;;;;;5031584;28;19909;-68
2023/09/09 00:35:28;;;;;;;;;;;20.70;57.90;;;;;;5031833;28;19936;-66
2023/09/09 00:37:56;;;;;;;;;;;20.60;57.80;;;;;;5031524;28;19959;-67
2023/09/09 00:40:22;;;;;;;;;;;20.60;57.70;;;;;;5031801;28;19909;-67
2023/09/09 00:42:47;;;;;;;;;;;20.50;57.70;;;;;;5031595;28;20501;-68
2023/09/09 00:45:13;;;;;;;;;;;20.50;57.70;;;;;;5031408;28;20340;-67
2023/09/09 00:47:38;;;;;;;;;;;20.40;57.70;;;;;;5030045;28;19909;-68
2023/09/09 00:50:05;;;;;;;;;;;20.50;57.90;;;;;;5031151;28;19917;-67
2023/09/09 00:52:31;;;;;;;;;;;20.40;57.90;;;;;;5031281;28;20404;-67
2023/09/09 00:54:57;;;;;;;;;;;20.30;57.90;;;;;;5031622;28;19957;-68
2023/09/09 00:57:22;;;;;;;;;;;20.30;57.80;;;;;;5031417;28;20032;-67
2023/09/09 00:59:48;;;;;;;;;;;20.20;57.80;;;;;;5031357;28;19917;-68
2023/09/09 01:02:13;;;;;;;;;;;20.20;57.80;;;;;;5031139;28;19909;-66
2023/09/09 01:04:39;;;;;;;;;;;20.20;57.90;;;;;;5030974;28;19921;-66
2023/09/09 01:07:04;;;;;;;;;;;20.20;58.00;;;;;;5031171;28;19971;-66
2023/09/09 01:09:30;;;;;;;;;;;20.10;58.00;;;;;;5031305;28;20379;-67
2023/09/09 01:11:56;;;;;;;;;;;20.00;58.00;;;;;;5030763;28;19986;-66
2023/09/09 01:14:21;;;;;;;;;;;20.00;58.00;;;;;;5029900;28;20369;-66
2023/09/09 01:16:50;;;;;;;;;;;20.00;58.10;;;;;;5030540;28;19935;-67
2023/09/09 01:19:18;;;;;;;;;;;20.00;58.20;;;;;;5031051;28;19917;-66
2023/09/09 01:21:45;;;;;;;;;;;20.00;58.20;;;;;;5030802;28;20357;-66
2023/09/09 01:24:12;;;;;;;;;;;20.00;58.30;;;;;;5029730;28;19928;-66
2023/09/09 01:26:38;;;;;;;;;;;20.00;58.30;;;;;;5030549;28;20368;-66
2023/09/09 01:29:03;;;;;;;;;;;20.00;58.40;;;;;;5030721;28;19921;-67
2023/09/09 01:31:28;;;;;;;;;;;20.00;58.60;;;;;;5030535;28;19909;-67
2023/09/09 01:33:56;;;;;;;;;;;19.90;58.50;;;;;;5030766;28;19971;-67
2023/09/09 01:36:22;;;;;;;;;;;19.90;58.50;;;;;;5030693;28;20430;-67
2023/09/09 01:38:47;;;;;;;;;;;19.90;58.60;;;;;;5030626;28;19921;-67
2023/09/09 01:41:12;;;;;;;;;;;19.80;58.60;;;;;;5030348;28;19941;-66
2023/09/09 01:43:38;;;;;;;;;;;19.80;58.60;;;;;;5030491;28;19917;-66
2023/09/09 01:46:03;;;;;;;;;;;19.80;58.80;;;;;;5030148;28;19924;-67
2023/09/09 01:48:29;;;;;;;;;;;19.80;58.90;;;;;;5030411;28;19917;-66
2023/09/09 01:50:55;;;;;;;;;;;19.80;59.10;;;;;;5030206;28;19968;-67
2023/09/09 01:53:20;;;;;;;;;;;19.80;59.00;;;;;;5030346;28;19917;-67
2023/09/09 01:55:45;;;;;;;;;;;19.80;59.00;;;;;;5030210;28;19917;-66
2023/09/09 01:58:11;;;;;;;;;;;19.80;59.10;;;;;;5030123;28;19921;-66
2023/09/09 02:00:36;;;;;;;;;;;19.70;59.00;;;;;;5029998;28;19909;-67
2023/09/09 02:03:02;;;;;;;;;;;19.70;59.00;;;;;;5030028;28;19913;-67
2023/09/09 02:05:27;;;;;;;;;;;19.70;59.10;;;;;;5030872;28;19909;-66
2023/09/09 02:07:53;;;;;;;;;;;19.60;59.10;;;;;;5030000;28;20357;-66
2023/09/09 02:10:18;;;;;;;;;;;19.60;59.10;;;;;;5030156;28;19920;-66
2023/09/09 02:12:44;;;;;;;;;;;19.60;59.10;;;;;;5029789;28;19909;-66
2023/09/09 02:15:10;;;;;;;;;;;19.50;59.30;;;;;;5029973;28;19913;-66
2023/09/09 02:17:36;;;;;;;;;;;19.50;59.20;;;;;;5029805;28;20433;-67
2023/09/09 02:20:02;;;;;;;;;;;19.50;59.30;;;;;;5030543;28;19956;-67
2023/09/09 02:22:28;;;;;;;;;;;19.50;59.30;;;;;;5030126;28;19940;-66
2023/09/09 02:24:55;;;;;;;;;;;19.40;59.50;;;;;;5030241;28;19917;-66
2023/09/09 02:27:21;;;;;;;;;;;19.40;59.70;;;;;;5029844;28;20356;-66
2023/09/09 02:29:46;;;;;;;;;;;19.40;59.60;;;;;;5030205;28;19917;-66
2023/09/09 02:32:12;;;;;;;;;;;19.40;59.50;;;;;;5029881;28;20120;-66
2023/09/09 02:34:37;;;;;;;;;;;19.50;59.40;;;;;;5031943;28;20262;-66
2023/09/09 02:37:16;;;;;;;;;;;19.40;59.40;;;;;;5033658;28;19916;-67
2023/09/09 02:39:43;;;;;;;;;;;19.40;59.30;;;;;;5034090;28;19948;-66
2023/09/09 02:42:10;;;;;;;;;;;19.40;59.30;;;;;;5033919;28;20429;-66
2023/09/09 02:44:36;;;;;;;;;;;19.30;59.30;;;;;;5034187;28;20361;-66
2023/09/09 02:47:01;;;;;;;;;;;19.30;59.30;;;;;;5033467;28;19920;-66
2023/09/09 02:49:27;;;;;;;;;;;19.30;59.30;;;;;;5033825;28;20403;-66
2023/09/09 02:51:52;;;;;;;;;;;19.20;59.40;;;;;;5033383;28;19939;-66
2023/09/09 02:54:18;;;;;;;;;;;19.20;59.50;;;;;;5033678;28;20250;-66
2023/09/09 02:56:43;;;;;;;;;;;19.10;59.60;;;;;;5033249;28;19936;-66
2023/09/09 02:59:08;;;;;;;;;;;19.10;59.60;;;;;;5033781;28;20312;-66
2023/09/09 03:01:34;;;;;;;;;;;19.10;59.70;;;;;;5033290;28;19917;-66
2023/09/09 03:03:59;;;;;;;;;;;19.10;59.70;;;;;;5033156;28;20374;-66
2023/09/09 03:06:25;;;;;;;;;;;19.00;59.80;;;;;;5033293;28;19917;-66
2023/09/09 03:08:50;;;;;;;;;;;19.00;59.70;;;;;;5033280;28;19917;-66
2023/09/09 03:11:16;;;;;;;;;;;18.90;59.80;;;;;;5033018;28;19917;-66
2023/09/09 03:13:42;;;;;;;;;;;18.90;60.00;;;;;;5033446;28;19917;-66
2023/09/09 03:16:08;;;;;;;;;;;18.90;60.00;;;;;;5033084;28;19932;-66
2023/09/09 03:18:33;;;;;;;;;;;18.80;60.10;;;;;;5033145;28;19921;-66
2023/09/09 03:20:58;;;;;;;;;;;18.80;60.00;;;;;;5033047;28;20280;-66
2023/09/09 03:23:24;;;;;;;;;;;18.80;60.00;;;;;;5033000;28;20369;-66
2023/09/09 03:25:49;;;;;;;;;;;18.80;60.00;;;;;;5032788;28;20428;-66
2023/09/09 03:28:15;;;;;;;;;;;18.70;60.00;;;;;;5031806;28;20373;-66
2023/09/09 03:30:57;;;;;;;;;;;18.70;60.10;;;;;;5032784;28;19909;-66
2023/09/09 03:33:22;;;;;;;;;;;18.70;60.20;;;;;;5032794;28;19924;-66
2023/09/09 03:35:48;;;;;;;;;;;18.70;60.30;;;;;;5032881;28;19909;-66
2023/09/09 03:38:13;;;;;;;;;;;18.60;60.30;;;;;;5032607;28;19928;-66
2023/09/09 03:40:39;;;;;;;;;;;18.60;60.30;;;;;;5032577;28;19909;-66
2023/09/09 03:43:04;;;;;;;;;;;18.60;60.40;;;;;;5032451;28;19924;-66
2023/09/09 03:45:30;;;;;;;;;;;18.60;60.40;;;;;;5032155;28;20361;-66
2023/09/09 03:47:56;;;;;;;;;;;18.50;60.50;;;;;;5032037;28;19915;-67
2023/09/09 03:50:21;;;;;;;;;;;18.50;60.60;;;;;;5032674;28;19905;-66
2023/09/09 03:52:47;;;;;;;;;;;18.50;60.70;;;;;;5032284;28;19996;-66
2023/09/09 03:55:12;;;;;;;;;;;18.50;60.80;;;;;;5032345;28;19910;-66
2023/09/09 03:57:38;;;;;;;;;;;18.50;60.70;;;;;;5032265;28;19959;-66
2023/09/09 04:00:05;;;;;;;;;;;18.50;60.90;;;;;;5032720;28;19917;-66
2023/09/09 04:02:31;;;;;;;;;;;18.50;60.90;;;;;;5032846;28;19955;-66
2023/09/09 04:04:56;;;;;;;;;;;18.40;61.00;;;;;;5032056;28;20371;-67
2023/09/09 04:07:21;;;;;;;;;;;18.40;61.10;;;;;;5032484;28;20369;-66
2023/09/09 04:09:47;;;;;;;;;;;18.40;61.20;;;;;;5032499;28;20360;-66
2023/09/09 04:12:12;;;;;;;;;;;18.40;61.30;;;;;;5032002;28;19910;-66
2023/09/09 04:14:39;;;;;;;;;;;18.30;61.30;;;;;;5031026;28;19921;-65
2023/09/09 04:17:05;;;;;;;;;;;18.30;61.20;;;;;;5031853;28;19917;-65
2023/09/09 04:19:31;;;;;;;;;;;18.30;61.20;;;;;;5032200;28;19921;-65
2023/09/09 04:21:57;;;;;;;;;;;18.30;61.20;;;;;;5027389;28;19921;-67
2023/09/09 04:24:22;;;;;;;;;;;18.30;61.20;;;;;;5020907;28;20316;-65
2023/09/09 04:26:47;;;;;;;;;;;18.30;61.30;;;;;;5021534;28;19990;-66
2023/09/09 04:29:13;;;;;;;;;;;18.30;61.30;;;;;;5022298;28;19940;-66
2023/09/09 04:31:38;;;;;;;;;;;18.30;61.40;;;;;;5019209;28;19936;-66
2023/09/09 04:34:04;;;;;;;;;;;18.30;61.40;;;;;;5031607;28;19944;-66
2023/09/09 04:36:29;;;;;;;;;;;18.30;61.40;;;;;;5031711;28;19913;-66
2023/09/09 04:38:55;;;;;;;;;;;18.30;61.40;;;;;;5031659;28;19921;-66
2023/09/09 04:41:20;;;;;;;;;;;18.30;61.50;;;;;;5031528;28;19909;-66
2023/09/09 04:43:45;;;;;;;;;;;18.20;61.60;;;;;;5031575;28;19924;-65
2023/09/09 04:46:11;;;;;;;;;;;18.20;61.70;;;;;;5018834;28;20381;-66
2023/09/09 04:48:37;;;;;;;;;;;18.20;61.80;;;;;;5011301;28;19917;-65
2023/09/09 04:51:02;;;;;;;;;;;18.30;61.80;;;;;;5011413;28;19928;-65
2023/09/09 04:53:28;;;;;;;;;;;18.20;61.90;;;;;;5008102;28;19921;-66
2023/09/09 04:55:53;;;;;;;;;;;18.30;61.90;;;;;;5010755;28;20365;-66
2023/09/09 04:58:19;;;;;;;;;;;18.30;62.00;;;;;;5011529;28;20296;-66
2023/09/09 05:00:44;;;;;;;;;;;18.30;62.10;;;;;;5011013;28;19983;-66
2023/09/09 05:03:10;;;;;;;;;;;18.40;62.50;;;;;;5007900;28;19988;-66
2023/09/09 05:05:35;;;;;;;;;;;18.50;62.60;;;;;;5011163;28;20320;-66
2023/09/09 05:08:01;;;;;;;;;;;18.60;62.90;;;;;;5009916;28;19953;-66
2023/09/09 05:10:27;;;;;;;;;;;18.80;63.20;;;;;;5011073;28;19961;-66
2023/09/09 05:12:55;;;;;;;;;;;18.90;63.40;;;;;;5007798;28;19959;-66
2023/09/09 05:15:20;;;;;;;;;;;19.10;63.70;;;;;;5011149;28;19918;-66
2023/09/09 05:17:46;;;;;;;;;;;19.40;64.10;;;;;;5010947;28;20389;-66
2023/09/09 05:20:12;;;;;;;;;;;19.60;64.40;;;;;;5010964;28;19920;-67
2023/09/09 05:22:37;;;;;;;;;;;19.90;64.90;;;;;;5010014;28;20420;-66
2023/09/09 05:25:03;;;;;;;;;;;20.30;65.30;;;;;;5010443;28;20433;-66
2023/09/09 05:27:28;;;;;;;;;;;20.60;65.50;;;;;;5010727;28;19913;-67
2023/09/09 05:29:54;;;;;;;;;;;21.00;65.60;;;;;;5010982;28;19917;-66
2023/09/09 05:32:19;;;;;;;;;;;21.30;65.60;;;;;;5008747;28;19998;-67
2023/09/09 05:34:45;;;;;;;;;;;21.60;65.50;;;;;;5009810;28;19917;-67
2023/09/09 05:37:10;;;;;;;;;;;21.90;65.90;;;;;;5009299;28;20020;-66
2023/09/09 05:39:36;;;;;;;;;;;22.30;66.10;;;;;;5011143;28;19962;-66
2023/09/09 05:42:02;;;;;;;;;;;22.70;66.30;;;;;;5010722;28;19921;-67
2023/09/09 05:44:27;;;;;;;;;;;23.10;66.40;;;;;;5011096;28;19913;-67
2023/09/09 05:46:53;;;;;;;;;;;23.50;66.50;;;;;;5030300;28;20228;-66
2023/09/09 05:49:19;;;;;;;;;;;23.90;66.30;;;;;;5030865;28;19913;-67
2023/09/09 05:51:44;;;;;;;;;;;24.30;66.30;;;;;;5030452;28;19975;-66
2023/09/09 05:54:10;;;;;;;;;;;24.70;65.80;;;;;;5030604;28;20019;-66
2023/09/09 05:56:35;;;;;;;;;;;25.00;66.00;;;;;;5030522;28;20276;-67
2023/09/09 05:59:00;;;;;;;;;;;25.40;65.60;;;;;;5029876;28;20450;-67
2023/09/09 06:01:26;;;;;;;;;;;25.80;64.80;;;;;;5023852;28;19913;-67
2023/09/09 06:03:54;;;;;;;;;;;26.10;64.60;;;;;;5010165;28;19960;-67
2023/09/09 06:06:20;;;;;;;;;;;26.40;64.50;;;;;;5010259;28;20340;-67
2023/09/09 06:08:46;;;;;;;;;;;26.80;63.80;;;;;;5010242;28;20334;-67
2023/09/09 06:11:11;;;;;;;;;;;27.20;64.10;;;;;;5009726;28;20008;-67
2023/09/09 06:13:40;;;;;;;;;;;27.50;64.10;;;;;;5007354;28;20016;-67
2023/09/09 06:16:05;;;;;;;;;;;28.00;63.70;;;;;;5010345;28;19916;-66
2023/09/09 06:18:31;;;;;;;;;;;28.40;63.40;;;;;;5008832;28;19921;-66
2023/09/09 06:20:57;;;;;;;;;;;28.80;63.30;;;;;;5022626;28;19920;-68
2023/09/09 06:23:23;;;;;;;;;;;29.30;63.00;;;;;;5030068;28;20004;-68
2023/09/09 06:25:49;;;;;;;;;;;29.80;62.30;;;;;;5029930;28;20004;-68
2023/09/09 06:28:14;;;;;;;;;;;30.20;61.90;;;;;;5029936;28;19917;-67
2023/09/09 06:30:43;;;;;;;;;;;30.70;61.10;;;;;;5029979;28;19920;-67
2023/09/09 06:33:09;;;;;;;;;;;31.10;60.30;;;;;;5028678;28;19924;-67
2023/09/09 06:35:34;;;;;;;;;;;31.50;59.20;;;;;;5029836;28;20019;-65
2023/09/09 06:38:00;;;;;;;;;;;31.90;58.40;;;;;;5029802;28;20486;-67
2023/09/09 06:40:26;;;;;;;;;;;32.30;57.70;;;;;;5030143;28;20004;-67
2023/09/09 06:42:51;;;;;;;;;;;32.70;56.80;;;;;;5029960;28;20370;-67
2023/09/09 06:45:17;;;;;;;;;;;33.00;54.90;;;;;;5030049;28;20242;-67
2023/09/09 06:47:43;;;;;;;;;;;33.30;53.50;;;;;;5029690;28;19963;-67
2023/09/09 06:50:09;;;;;;;;;;;33.60;52.10;;;;;;5029693;28;19971;-67
2023/09/09 06:52:38;;;;;;;;;;;33.90;51.50;;;;;;5029796;28;19921;-66
2023/09/09 06:55:04;;;;;;;;;;;34.30;50.50;;;;;;5029817;28;19921;-67
2023/09/09 06:57:30;;;;;;;;;;;34.50;48.90;;;;;;5030459;28;20419;-66
2023/09/09 06:59:55;;;;;;;;;;;34.80;47.50;;;;;;5030343;28;19921;-66
2023/09/09 07:02:21;;;;;;;;;;;35.20;46.70;;;;;;5030489;28;19924;-67
2023/09/09 07:04:46;;;;;;;;;;;35.50;45.70;;;;;;5030456;28;20391;-66
2023/09/09 07:07:12;;;;;;;;;;;35.80;44.60;;;;;;5030911;28;20369;-66
2023/09/09 07:09:37;;;;;;;;;;;36.10;43.10;;;;;;5031082;28;19917;-67
2023/09/09 07:12:03;;;;;;;;;;;36.40;41.20;;;;;;5030244;28;20568;-66
2023/09/09 07:14:29;;;;;;;;;;;36.50;40.70;;;;;;5029806;28;19967;-66
2023/09/09 07:16:54;;;;;;;;;;;36.80;40.20;;;;;;5030086;28;20038;-67
2023/09/09 07:19:19;;;;;;;;;;;37.10;39.50;;;;;;5030029;28;19924;-66
2023/09/09 07:21:45;;;;;;;;;;;37.30;38.90;;;;;;5031239;28;20035;-67
2023/09/09 07:24:11;;;;;;;;;;;37.60;38.30;;;;;;5033584;28;19917;-67
2023/09/09 07:26:36;;;;;;;;;;;37.80;37.50;;;;;;5033068;28;19909;-67
2023/09/09 07:29:01;;;;;;;;;;;38.10;36.50;;;;;;5033255;28;19921;-65
2023/09/09 07:31:28;;;;;;;;;;;38.30;36.40;;;;;;5032902;28;20345;-67
2023/09/09 07:33:54;;;;;;;;;;;38.70;35.80;;;;;;5033225;28;20320;-66
2023/09/09 07:36:20;;;;;;;;;;;38.90;35.00;;;;;;5033000;28;19909;-67
2023/09/09 07:38:45;;;;;;;;;;;39.10;34.70;;;;;;5032553;28;20297;-66
2023/09/09 07:41:11;;;;;;;;;;;39.40;34.50;;;;;;5032805;28;20338;-66
2023/09/09 07:43:36;;;;;;;;;;;39.70;34.10;;;;;;5032726;28;20373;-66
2023/09/09 07:46:02;;;;;;;;;;;39.80;32.70;;;;;;5032540;28;19916;-66
2023/09/09 07:48:27;;;;;;;;;;;39.90;33.00;;;;;;5032444;28;20059;-66
2023/09/09 07:50:54;;;;;;;;;;;40.20;32.70;;;;;;5031194;28;19952;-67
2023/09/09 07:53:20;;;;;;;;;;;40.50;32.20;;;;;;5032548;28;19976;-66
2023/09/09 07:55:49;;;;;;;;;;;40.70;31.50;;;;;;5031969;28;19914;-66
2023/09/09 07:58:15;;;;;;;;;;;40.80;31.00;;;;;;5016654;28;19921;-66
2023/09/09 08:00:41;;;;;;;;;;;41.00;30.50;;;;;;5018072;28;20388;-66
2023/09/09 08:03:07;;;;;;;;;;;41.20;30.40;;;;;;5028936;28;20036;-66
2023/09/09 08:05:33;;;;;;;;;;;41.40;29.80;;;;;;5031821;28;19910;-66
2023/09/09 08:07:59;;;;;;;;;;;41.70;29.40;;;;;;5016234;28;19917;-66
2023/09/09 08:10:24;;;;;;;;;;;42.00;29.20;;;;;;5012297;28;20391;-66
2023/09/09 08:12:50;;;;;;;;;;;42.20;28.80;;;;;;5011955;28;20381;-67
2023/09/09 08:15:15;;;;;;;;;;;42.30;28.30;;;;;;5012164;28;19971;-66
2023/09/09 08:17:41;;;;;;;;;;;42.30;28.10;;;;;;5011886;28;19917;-66
2023/09/09 08:20:07;;;;;;;;;;;42.50;28.00;;;;;;5022107;28;19918;-67
2023/09/09 08:22:33;;;;;;;;;;;42.70;27.90;;;;;;5020729;28;19909;-66
2023/09/09 08:24:59;;;;;;;;;;;42.80;27.60;;;;;;5023376;28;19928;-66
2023/09/09 08:27:24;;;;;;;;;;;43.00;27.60;;;;;;5012403;28;20092;-66
2023/09/09 08:29:50;;;;;;;;;;;43.20;27.30;;;;;;5026168;28;19928;-66
2023/09/09 08:32:15;;;;;;;;;;;43.40;26.60;;;;;;5023419;28;19913;-66
2023/09/09 08:34:41;;;;;;;;;;;43.50;26.60;;;;;;5012075;28;20260;-65
2023/09/09 08:37:07;;;;;;;;;;;43.60;26.60;;;;;;5011763;28;19914;-66
2023/09/09 08:39:33;;;;;;;;;;;43.70;26.30;;;;;;5012306;28;20056;-66
2023/09/09 08:42:34;;;;;;;;;;;43.80;26.30;;;;;;5011700;28;19921;-66
2023/09/09 08:45:12;;;;;;;;;;;44.00;26.10;;;;;;4989449;28;19925;-66
2023/09/09 08:47:38;;;;;;;;;;;44.20;26.10;;;;;;5026428;28;19909;-66
2023/09/09 08:50:04;;;;;;;;;;;44.30;25.60;;;;;;5031968;28;19924;-67
2023/09/09 08:52:30;;;;;;;;;;;44.40;25.60;;;;;;5031334;28;19921;-65
2023/09/09 08:54:56;;;;;;;;;;;44.60;25.40;;;;;;5031555;28;19921;-66
2023/09/09 08:57:22;;;;;;;;;;;44.70;25.30;;;;;;5031104;28;19913;-65
2023/09/09 08:59:47;;;;;;;;;;;44.80;25.30;;;;;;5031414;28;19917;-65
2023/09/09 09:02:13;;;;;;;;;;;44.90;25.10;;;;;;5031049;28;20448;-65
2023/09/09 09:04:39;;;;;;;;;;;44.90;25.30;;;;;;5031153;28;19960;-65
2023/09/09 09:07:07;;;;;;;;;;;45.10;25.10;;;;;;5031162;28;19909;-65
2023/09/09 09:09:34;;;;;;;;;;;45.30;25.10;;;;;;5031433;28;19918;-65
2023/09/09 09:12:03;;;;;;;;;;;45.50;24.70;;;;;;5030778;28;19932;-65
2023/09/09 09:14:29;;;;;;;;;;;45.60;24.50;;;;;;5031299;28;20015;-65
2023/09/09 09:16:55;;;;;;;;;;;45.70;24.10;;;;;;5030589;28;19913;-67
2023/09/09 09:19:28;;;;;;;;;;;45.80;23.90;;;;;;5029527;28;19924;-66
2023/09/09 09:21:54;;;;;;;;;;;45.80;24.00;;;;;;5030800;28;19940;-66
2023/09/09 09:24:25;;;;;;;;;;;46.00;24.20;;;;;;5030997;28;19925;-67
2023/09/09 09:26:51;;;;;;;;;;;46.10;24.30;;;;;;5030368;28;20003;-66
2023/09/09 09:29:17;;;;;;;;;;;46.30;24.00;;;;;;5030872;28;20012;-67
2023/09/09 09:31:49;;;;;;;;;;;46.40;24.00;;;;;;5030326;28;20694;-66
2023/09/09 09:34:16;;;;;;;;;;;46.50;23.50;;;;;;5030827;28;20365;-66
2023/09/09 09:36:41;;;;;;;;;;;46.50;23.50;;;;;;5030271;28;19916;-66
2023/09/09 09:39:10;;;;;;;;;;;46.70;23.70;;;;;;5030804;28;19917;-66
2023/09/09 09:41:38;;;;;;;;;;;46.70;23.30;;;;;;5030612;28;20450;-67
2023/09/09 09:44:04;;;;;;;;;;;46.80;23.20;;;;;;5030065;28;19986;-67
2023/09/09 09:46:29;;;;;;;;;;;46.80;23.10;;;;;;5030342;28;19910;-66
2023/09/09 09:48:55;;;;;;;;;;;46.80;22.90;;;;;;5030558;28;19933;-66
2023/09/09 09:51:20;;;;;;;;;;;46.80;23.10;;;;;;5030163;28;19917;-66
2023/09/09 09:53:48;;;;;;;;;;;46.90;23.00;;;;;;5030286;28;19975;-67
2023/09/09 09:56:16;;;;;;;;;;;47.00;22.90;;;;;;5029862;28;20297;-66
2023/09/09 09:58:43;;;;;;;;;;;47.20;22.90;;;;;;5030126;28;20011;-67
2023/09/09 10:01:09;;;;;;;;;;;47.20;22.50;;;;;;5030090;28;19975;-67
2023/09/09 10:04:01;;;;;;;;;;;47.10;22.60;;;;;;5030402;28;19921;-67
2023/09/09 10:06:28;;;;;;;;;;;47.20;22.60;;;;;;5028820;28;20449;-66
2023/09/09 10:08:56;;;;;;;;;;;47.20;21.80;;;;;;5030011;28;19913;-66
2023/09/09 10:11:24;;;;;;;;;;;47.10;22.10;;;;;;5029873;28;19921;-66
2023/09/09 10:13:56;;;;;;;;;;;47.20;22.50;;;;;;5030072;28;19913;-67
2023/09/09 10:16:22;;;;;;;;;;;47.40;22.30;;;;;;5029977;28;19913;-66
2023/09/09 10:18:49;;;;;;;;;;;47.40;21.70;;;;;;5029778;28;20296;-66
2023/09/09 10:21:16;;;;;;;;;;;47.40;21.40;;;;;;5030077;28;20308;-67
2023/09/09 10:23:43;;;;;;;;;;;47.40;21.70;;;;;;5028424;28;19917;-66
2023/09/09 10:26:10;;;;;;;;;;;47.30;21.30;;;;;;5030041;28;19921;-66
2023/09/09 10:28:36;;;;;;;;;;;47.20;21.40;;;;;;5030029;28;19913;-65
2023/09/09 10:31:02;;;;;;;;;;;47.30;21.50;;;;;;5029575;28;20396;-65
2023/09/09 10:33:28;;;;;;;;;;;47.30;21.30;;;;;;5029803;28;20472;-65
2023/09/09 10:35:54;;;;;;;;;;;47.30;21.20;;;;;;5029700;28;19913;-65
2023/09/09 10:38:19;;;;;;;;;;;47.30;21.00;;;;;;5029587;28;20033;-66
2023/09/09 10:40:48;;;;;;;;;;;47.20;21.00;;;;;;5029519;28;19917;-65
2023/09/09 10:43:13;;;;;;;;;;;47.20;21.10;;;;;;5029765;28;20327;-65
2023/09/09 10:45:43;;;;;;;;;;;47.00;21.10;;;;;;5029744;28;20012;-66
2023/09/09 10:48:10;;;;;;;;;;;47.00;21.20;;;;;;5030046;28;19913;-65
2023/09/09 10:50:46;;;;;;;;;;;46.90;21.10;;;;;;5029556;28;20886;-65
2023/09/09 10:53:14;;;;;;;;;;;46.70;21.30;;;;;;5030396;28;19973;-65
2023/09/09 10:55:40;;;;;;;;;;;46.70;21.20;;;;;;5029790;28;19913;-65
2023/09/09 10:58:06;;;;;;;;;;;46.60;21.40;;;;;;5033287;28;20258;-66
2023/09/09 11:00:39;;;;;;;;;;;46.70;21.40;;;;;;5033465;28;20365;-65
2023/09/09 11:03:11;;;;;;;;;;;46.60;21.70;;;;;;5033234;28;19956;-65
2023/09/09 11:05:55;;;;;;;;;;;46.60;21.50;;;;;;5033338;28;19913;-65
2023/09/09 11:08:28;;;;;;;;;;;46.60;21.40;;;;;;5033358;28;19913;-65
2023/09/09 11:11:07;;;;;;;;;;;46.50;21.30;;;;;;5033056;28;19952;-65
2023/09/09 11:13:43;;;;;;;;;;;46.50;21.30;;;;;;5033430;28;20377;-65
2023/09/09 11:16:27;;;;;;;;;;;46.40;21.00;;;;;;5032969;28;19921;-65
2023/09/09 11:18:53;;;;;;;;;;;46.30;21.20;;;;;;5033116;28;19979;-66
2023/09/09 11:21:25;;;;;;;;;;;46.20;21.10;;;;;;5033303;28;20319;-66
2023/09/09 11:23:51;;;;;;;;;;;46.20;21.20;;;;;;5033015;28;19975;-66
2023/09/09 11:26:16;;;;;;;;;;;46.10;21.30;;;;;;5033386;28;20280;-65
2023/09/09 11:28:46;;;;;;;;;;;46.10;21.20;;;;;;5032850;28;19970;-66
2023/09/09 11:31:12;;;;;;;;;;;45.90;21.10;;;;;;5032991;28;20216;-66
2023/09/09 11:33:38;;;;;;;;;;;45.80;21.30;;;;;;5032790;28;20003;-66
2023/09/09 11:36:04;;;;;;;;;;;45.80;20.90;;;;;;5031365;28;19923;-66
2023/09/09 11:38:38;;;;;;;;;;;45.70;20.90;;;;;;5032690;28;20434;-66
2023/09/09 11:41:04;;;;;;;;;;;45.70;21.20;;;;;;5032569;28;20300;-66
2023/09/09 11:43:29;;;;;;;;;;;45.70;21.50;;;;;;5032703;28;19958;-66
2023/09/09 11:45:56;;;;;;;;;;;45.80;21.40;;;;;;5032504;28;19917;-66
2023/09/09 11:48:22;;;;;;;;;;;45.80;20.80;;;;;;5032692;28;19939;-66
2023/09/09 11:50:48;;;;;;;;;;;45.60;20.90;;;;;;5032311;28;19971;-66
2023/09/09 11:53:14;;;;;;;;;;;45.50;20.80;;;;;;5032534;28;19916;-66
2023/09/09 11:55:39;;;;;;;;;;;45.30;20.90;;;;;;5031075;28;19917;-66
2023/09/09 11:58:05;;;;;;;;;;;45.30;21.00;;;;;;5032147;28;19927;-66
2023/09/09 12:00:30;;;;;;;;;;;45.30;21.00;;;;;;5032346;28;20419;-66
2023/09/09 12:02:56;;;;;;;;;;;45.20;21.00;;;;;;5032279;28;19993;-66
2023/09/09 12:05:27;;;;;;;;;;;45.30;20.80;;;;;;5032469;28;19914;-66
2023/09/09 12:07:52;;;;;;;;;;;45.10;20.70;;;;;;5031230;28;20315;-66
2023/09/09 12:10:18;;;;;;;;;;;44.90;20.50;;;;;;5032463;28;19913;-66
2023/09/09 12:12:45;;;;;;;;;;;44.70;20.50;;;;;;5032060;28;20237;-66
2023/09/09 12:15:11;;;;;;;;;;;44.60;20.60;;;;;;5032136;28;19913;-66
2023/09/09 12:17:37;;;;;;;;;;;44.40;20.40;;;;;;5031942;28;19952;-66
2023/09/09 12:20:08;;;;;;;;;;;44.30;20.70;;;;;;5032163;28;20020;-66
2023/09/09 12:22:35;;;;;;;;;;;44.10;20.80;;;;;;5032111;28;19979;-66
2023/09/09 12:25:01;;;;;;;;;;;44.00;21.10;;;;;;5031765;28;19984;-66
2023/09/09 12:27:43;;;;;;;;;;;43.90;21.00;;;;;;5031363;28;19921;-66
2023/09/09 12:30:27;;;;;;;;;;;43.90;21.10;;;;;;5031660;28;20015;-66
2023/09/09 12:32:52;;;;;;;;;;;43.80;21.30;;;;;;5031748;28;19910;-67
2023/09/09 12:35:18;;;;;;;;;;;43.80;21.50;;;;;;5031600;28;19913;-66
2023/09/09 12:37:44;;;;;;;;;;;43.70;21.50;;;;;;5029960;28;19920;-66
2023/09/09 12:40:10;;;;;;;;;;;43.60;21.60;;;;;;5031415;28;20284;-66
2023/09/09 12:42:35;;;;;;;;;;;43.50;21.70;;;;;;5031656;28;19985;-66
2023/09/09 12:45:00;;;;;;;;;;;43.50;21.40;;;;;;5031692;28;20271;-67
2023/09/09 12:47:26;;;;;;;;;;;43.40;21.50;;;;;;5031289;28;20028;-66
2023/09/09 12:49:52;;;;;;;;;;;43.40;21.40;;;;;;5031332;28;19913;-66
2023/09/09 12:52:17;;;;;;;;;;;43.30;21.20;;;;;;5029766;28;19920;-67
2023/09/09 12:54:43;;;;;;;;;;;43.10;21.10;;;;;;5031431;28;19920;-66
2023/09/09 12:57:08;;;;;;;;;;;43.00;21.40;;;;;;5031304;28;20008;-67
2023/09/09 12:59:34;;;;;;;;;;;42.80;21.70;;;;;;5031392;28;19913;-66
2023/09/09 13:01:59;;;;;;;;;;;42.70;21.70;;;;;;5031016;28;19956;-66
2023/09/09 13:04:25;;;;;;;;;;;42.70;21.80;;;;;;5031033;28;19917;-66
2023/09/09 13:06:50;;;;;;;;;;;42.50;21.70;;;;;;5031025;28;19988;-66
2023/09/09 13:09:16;;;;;;;;;;;42.40;21.90;;;;;;5031346;28;19913;-67
2023/09/09 13:11:41;;;;;;;;;;;42.30;22.10;;;;;;5031027;28;19917;-66
2023/09/09 13:14:07;;;;;;;;;;;42.20;22.20;;;;;;5031116;28;19948;-66
2023/09/09 13:16:32;;;;;;;;;;;42.10;22.20;;;;;;5030983;28;19913;-66
2023/09/09 13:18:57;;;;;;;;;;;42.00;21.80;;;;;;5031067;28;19917;-67
2023/09/09 13:21:23;;;;;;;;;;;41.70;22.30;;;;;;5031004;28;19990;-67
2023/09/09 13:23:48;;;;;;;;;;;41.60;22.70;;;;;;5030876;28;19920;-67
2023/09/09 13:26:14;;;;;;;;;;;41.60;23.00;;;;;;5030898;28;20373;-67
2023/09/09 13:28:39;;;;;;;;;;;41.50;23.10;;;;;;5030524;28;20394;-67
2023/09/09 13:31:05;;;;;;;;;;;41.40;23.30;;;;;;5030683;28;19967;-67
2023/09/09 13:33:30;;;;;;;;;;;41.30;23.40;;;;;;5030826;28;20349;-67
2023/09/09 13:35:55;;;;;;;;;;;41.20;23.70;;;;;;5030692;28;20369;-66
2023/09/09 13:38:21;;;;;;;;;;;41.10;23.90;;;;;;5029168;28;19931;-66
2023/09/09 13:40:46;;;;;;;;;;;41.00;24.00;;;;;;5029240;28;19917;-67
2023/09/09 13:43:12;;;;;;;;;;;40.70;24.00;;;;;;5030480;28;19917;-67
2023/09/09 13:45:37;;;;;;;;;;;40.40;24.00;;;;;;5030413;28;19913;-66
2023/09/09 13:48:03;;;;;;;;;;;39.90;24.20;;;;;;5030286;28;20012;-68
2023/09/09 13:50:28;;;;;;;;;;;39.60;24.70;;;;;;5030556;28;19998;-67
2023/09/09 13:52:55;;;;;;;;;;;39.30;24.80;;;;;;5029448;28;19913;-67
2023/09/09 13:55:21;;;;;;;;;;;38.90;25.10;;;;;;5030598;28;20332;-67
2023/09/09 13:57:46;;;;;;;;;;;38.70;25.30;;;;;;5030016;28;19920;-67
2023/09/09 14:00:12;;;;;;;;;;;38.40;25.80;;;;;;5028964;28;19914;-67
2023/09/09 14:02:37;;;;;;;;;;;38.30;26.00;;;;;;5030134;28;19980;-67
2023/09/09 14:05:03;;;;;;;;;;;38.20;26.20;;;;;;5030439;28;19917;-67
2023/09/09 14:07:28;;;;;;;;;;;38.00;26.10;;;;;;5030145;28;20360;-67
2023/09/09 14:09:54;;;;;;;;;;;37.80;26.30;;;;;;5030631;28;20016;-66
2023/09/09 14:12:20;;;;;;;;;;;37.70;26.60;;;;;;5030037;28;20281;-66